KVSF/VSF METAR and TAF weather

Enter ICAO airport designator
Station Type Date Time Source
KVSF METAR 2020/07/12 01:54 UTC NOAA

KVSF 120154Z AUTO 17007KT 10SM FEW070 SCT100 26/21 A2962 RMK AO2 RAB0057E06 SLP028 P0000 T02560206


Station Type Date Time Source
KVSF Decoded METAR 2020/07/12 01:54 UTC NOAA

HARTNESS STATE AIRPORT, VT, United States (KVSF) 43-21N 72-31W 175M
Jul 11, 2020 - 09:54 PM EDT / 2020.07.12 0154 UTC
Wind: from the S (170 degrees) at 8 MPH (7 KT):0
Visibility: 10 mile(s):0
Sky conditions: partly cloudy
Precipitation last hour: A trace
Temperature: 78.1 F (25.6 C)
Dew Point: 69.1 F (20.6 C)
Relative Humidity: 73%
Pressure (altimeter): 29.62 in. Hg (1003 hPa)
ob: KVSF 120154Z AUTO 17007KT 10SM FEW070 SCT100 26/21 A2962 RMK AO2 RAB0057E06 SLP028 P0000 T02560206
cycle: 2

Station Type Date Time Source
KVSF TAF UTC NOAA

Error!

Example: see airport list